sensor_id;sensor_type;location;lat;lon;timestamp;temperature;humidity
19403;DHT22;9837;48.888;8.998;2024-03-06T00:00:41;11.60;68.10
19403;DHT22;9837;48.888;8.998;2024-03-06T00:03:07;11.60;67.30
19403;DHT22;9837;48.888;8.998;2024-03-06T00:05:32;11.60;67.40
19403;DHT22;9837;48.888;8.998;2024-03-06T00:07:58;11.60;67.50
19403;DHT22;9837;48.888;8.998;2024-03-06T00:10:23;11.60;67.60
19403;DHT22;9837;48.888;8.998;2024-03-06T00:12:49;11.60;67.50
19403;DHT22;9837;48.888;8.998;2024-03-06T00:15:14;11.60;67.50
19403;DHT22;9837;48.888;8.998;2024-03-06T00:17:40;11.60;67.50
19403;DHT22;9837;48.888;8.998;2024-03-06T00:20:06;11.60;68.30
19403;DHT22;9837;48.888;8.998;2024-03-06T00:22:32;11.60;67.40
19403;DHT22;9837;48.888;8.998;2024-03-06T00:24:58;11.60;68.20
19403;DHT22;9837;48.888;8.998;2024-03-06T00:27:23;11.60;67.50
19403;DHT22;9837;48.888;8.998;2024-03-06T00:29:48;11.60;67.50
19403;DHT22;9837;48.888;8.998;2024-03-06T00:32:14;11.60;67.60
19403;DHT22;9837;48.888;8.998;2024-03-06T00:34:40;11.60;67.60
19403;DHT22;9837;48.888;8.998;2024-03-06T00:37:05;11.60;68.30
19403;DHT22;9837;48.888;8.998;2024-03-06T00:39:31;11.60;67.70
19403;DHT22;9837;48.888;8.998;2024-03-06T00:41:56;11.60;67.70
19403;DHT22;9837;48.888;8.998;2024-03-06T00:46:47;14.20;69.30
19403;DHT22;9837;48.888;8.998;2024-03-06T00:49:13;11.60;68.50
19403;DHT22;9837;48.888;8.998;2024-03-06T00:51:38;11.60;67.70
19403;DHT22;9837;48.888;8.998;2024-03-06T00:54:04;11.60;67.80
19403;DHT22;9837;48.888;8.998;2024-03-06T00:56:30;11.60;67.80
19403;DHT22;9837;48.888;8.998;2024-03-06T00:58:56;11.60;68.50
19403;DHT22;9837;48.888;8.998;2024-03-06T01:01:21;11.60;68.00
19403;DHT22;9837;48.888;8.998;2024-03-06T01:03:47;11.60;68.70
19403;DHT22;9837;48.888;8.998;2024-03-06T01:06:12;11.60;68.70
19403;DHT22;9837;48.888;8.998;2024-03-06T01:08:38;11.60;68.50
19403;DHT22;9837;48.888;8.998;2024-03-06T01:13:30;11.70;67.90
19403;DHT22;9837;48.888;8.998;2024-03-06T01:15:55;11.60;67.80
19403;DHT22;9837;48.888;8.998;2024-03-06T01:18:21;11.60;67.80
19403;DHT22;9837;48.888;8.998;2024-03-06T01:20:46;11.60;68.50
19403;DHT22;9837;48.888;8.998;2024-03-06T01:23:12;11.50;68.00
19403;DHT22;9837;48.888;8.998;2024-03-06T01:25:37;11.50;68.80
19403;DHT22;9837;48.888;8.998;2024-03-06T01:28:03;11.50;68.80
19403;DHT22;9837;48.888;8.998;2024-03-06T01:30:29;11.50;68.20
19403;DHT22;9837;48.888;8.998;2024-03-06T01:32:54;11.50;69.00
19403;DHT22;9837;48.888;8.998;2024-03-06T01:35:20;11.50;68.00
19403;DHT22;9837;48.888;8.998;2024-03-06T01:37:45;11.50;68.00
19403;DHT22;9837;48.888;8.998;2024-03-06T01:40:11;11.50;68.00
19403;DHT22;9837;48.888;8.998;2024-03-06T01:42:38;11.50;67.90
19403;DHT22;9837;48.888;8.998;2024-03-06T01:45:04;11.50;68.60
19403;DHT22;9837;48.888;8.998;2024-03-06T01:49:56;11.50;67.90
19403;DHT22;9837;48.888;8.998;2024-03-06T01:52:22;11.40;68.60
19403;DHT22;9837;48.888;8.998;2024-03-06T01:54:48;11.40;68.90
19403;DHT22;9837;48.888;8.998;2024-03-06T01:57:16;11.30;68.40
19403;DHT22;9837;48.888;8.998;2024-03-06T01:59:42;11.30;69.10
19403;DHT22;9837;48.888;8.998;2024-03-06T02:02:08;11.00;69.30
19403;DHT22;9837;48.888;8.998;2024-03-06T02:04:37;10.70;70.30
19403;DHT22;9837;48.888;8.998;2024-03-06T02:07:03;10.70;70.80
19403;DHT22;9837;48.888;8.998;2024-03-06T02:09:29;10.70;70.80
19403;DHT22;9837;48.888;8.998;2024-03-06T02:11:54;10.70;70.70
19403;DHT22;9837;48.888;8.998;2024-03-06T02:14:20;10.80;70.60
19403;DHT22;9837;48.888;8.998;2024-03-06T02:16:45;10.90;70.00
19403;DHT22;9837;48.888;8.998;2024-03-06T02:21:37;11.10;69.50
19403;DHT22;9837;48.888;8.998;2024-03-06T02:26:29;11.40;68.80
19403;DHT22;9837;48.888;8.998;2024-03-06T02:28:55;11.40;68.50
19403;DHT22;9837;48.888;8.998;2024-03-06T02:31:21;11.50;68.40
19403;DHT22;9837;48.888;8.998;2024-03-06T02:33:49;11.40;68.20
19403;DHT22;9837;48.888;8.998;2024-03-06T02:36:18;11.30;68.50
19403;DHT22;9837;48.888;8.998;2024-03-06T02:38:44;11.20;68.80
19403;DHT22;9837;48.888;8.998;2024-03-06T02:41:10;11.20;69.20
19403;DHT22;9837;48.888;8.998;2024-03-06T02:43:36;11.10;69.20
19403;DHT22;9837;48.888;8.998;2024-03-06T02:48:28;11.20;68.70
19403;DHT22;9837;48.888;8.998;2024-03-06T02:53:20;11.00;69.80
19403;DHT22;9837;48.888;8.998;2024-03-06T02:55:47;10.90;69.90
19403;DHT22;9837;48.888;8.998;2024-03-06T02:58:12;10.70;70.50
19403;DHT22;9837;48.888;8.998;2024-03-06T03:00:39;10.70;71.20
19403;DHT22;9837;48.888;8.998;2024-03-06T03:03:06;10.60;71.80
19403;DHT22;9837;48.888;8.998;2024-03-06T03:05:31;10.90;70.50
19403;DHT22;9837;48.888;8.998;2024-03-06T03:07:58;11.00;70.00
19403;DHT22;9837;48.888;8.998;2024-03-06T03:10:24;11.10;69.60
19403;DHT22;9837;48.888;8.998;2024-03-06T03:12:50;11.10;70.30
19403;DHT22;9837;48.888;8.998;2024-03-06T03:17:41;11.10;69.30
19403;DHT22;9837;48.888;8.998;2024-03-06T03:20:07;11.10;70.00
19403;DHT22;9837;48.888;8.998;2024-03-06T03:22:40;11.10;70.10
19403;DHT22;9837;48.888;8.998;2024-03-06T03:25:09;11.10;70.20
19403;DHT22;9837;48.888;8.998;2024-03-06T03:27:36;11.00;70.60
19403;DHT22;9837;48.888;8.998;2024-03-06T03:30:02;11.10;69.80
19403;DHT22;9837;48.888;8.998;2024-03-06T03:34:54;11.10;69.30
19403;DHT22;9837;48.888;8.998;2024-03-06T03:37:19;11.10;69.50
19403;DHT22;9837;48.888;8.998;2024-03-06T03:39:45;11.10;69.50
19403;DHT22;9837;48.888;8.998;2024-03-06T03:42:11;11.10;69.50
19403;DHT22;9837;48.888;8.998;2024-03-06T03:44:36;11.20;69.60
19403;DHT22;9837;48.888;8.998;2024-03-06T03:47:02;11.10;69.70
19403;DHT22;9837;48.888;8.998;2024-03-06T03:51:53;11.00;70.00
19403;DHT22;9837;48.888;8.998;2024-03-06T03:54:19;11.00;70.10
19403;DHT22;9837;48.888;8.998;2024-03-06T03:56:44;11.10;70.00
19403;DHT22;9837;48.888;8.998;2024-03-06T03:59:10;11.10;69.80
19403;DHT22;9837;48.888;8.998;2024-03-06T04:01:35;11.10;69.80
19403;DHT22;9837;48.888;8.998;2024-03-06T04:04:01;11.10;69.90
19403;DHT22;9837;48.888;8.998;2024-03-06T04:06:27;11.10;69.90
19403;DHT22;9837;48.888;8.998;2024-03-06T04:08:52;11.10;70.50
19403;DHT22;9837;48.888;8.998;2024-03-06T04:13:44;11.20;69.70
19403;DHT22;9837;48.888;8.998;2024-03-06T04:18:35;11.20;69.60
19403;DHT22;9837;48.888;8.998;2024-03-06T04:21:05;11.30;69.80
19403;DHT22;9837;48.888;8.998;2024-03-06T04:23:31;11.20;69.90
19403;DHT22;9837;48.888;8.998;2024-03-06T04:25:56;11.30;69.90
19403;DHT22;9837;48.888;8.998;2024-03-06T04:28:22;11.20;69.90
19403;DHT22;9837;48.888;8.998;2024-03-06T04:30:47;11.20;69.90
19403;DHT22;9837;48.888;8.998;2024-03-06T04:38:06;11.30;70.30
19403;DHT22;9837;48.888;8.998;2024-03-06T04:40:32;11.20;70.40
19403;DHT22;9837;48.888;8.998;2024-03-06T04:42:59;11.30;70.50
19403;DHT22;9837;48.888;8.998;2024-03-06T04:45:25;11.20;70.40
19403;DHT22;9837;48.888;8.998;2024-03-06T04:47:51;11.20;70.50
19403;DHT22;9837;48.888;8.998;2024-03-06T04:50:16;11.20;70.60
19403;DHT22;9837;48.888;8.998;2024-03-06T04:52:42;11.20;70.60
19403;DHT22;9837;48.888;8.998;2024-03-06T04:55:08;11.20;70.50
19403;DHT22;9837;48.888;8.998;2024-03-06T04:57:39;11.20;70.50
19403;DHT22;9837;48.888;8.998;2024-03-06T05:00:09;11.20;70.70
19403;DHT22;9837;48.888;8.998;2024-03-06T05:02:35;11.20;70.80
19403;DHT22;9837;48.888;8.998;2024-03-06T05:05:02;11.20;71.50
19403;DHT22;9837;48.888;8.998;2024-03-06T05:07:29;11.20;70.80
19403;DHT22;9837;48.888;8.998;2024-03-06T05:09:55;11.20;70.90
19403;DHT22;9837;48.888;8.998;2024-03-06T05:12:21;11.20;71.00
19403;DHT22;9837;48.888;8.998;2024-03-06T05:14:47;11.20;71.70
19403;DHT22;9837;48.888;8.998;2024-03-06T05:17:12;11.20;70.90
19403;DHT22;9837;48.888;8.998;2024-03-06T05:19:38;11.20;71.00
19403;DHT22;9837;48.888;8.998;2024-03-06T05:22:03;11.20;71.10
19403;DHT22;9837;48.888;8.998;2024-03-06T05:24:29;11.20;71.30
19403;DHT22;9837;48.888;8.998;2024-03-06T05:26:55;11.20;71.50
19403;DHT22;9837;48.888;8.998;2024-03-06T05:29:20;11.20;72.20
19403;DHT22;9837;48.888;8.998;2024-03-06T05:34:12;11.20;71.50
19403;DHT22;9837;48.888;8.998;2024-03-06T05:36:37;11.20;72.20
19403;DHT22;9837;48.888;8.998;2024-03-06T05:39:03;11.20;71.50
19403;DHT22;9837;48.888;8.998;2024-03-06T05:41:33;11.20;72.20
19403;DHT22;9837;48.888;8.998;2024-03-06T05:43:58;11.10;71.40
19403;DHT22;9837;48.888;8.998;2024-03-06T05:46:24;11.10;71.40
19403;DHT22;9837;48.888;8.998;2024-03-06T05:48:49;11.10;72.20
19403;DHT22;9837;48.888;8.998;2024-03-06T05:51:16;11.10;71.60
19403;DHT22;9837;48.888;8.998;2024-03-06T05:53:42;11.10;71.70
19403;DHT22;9837;48.888;8.998;2024-03-06T05:56:07;11.10;71.70
19403;DHT22;9837;48.888;8.998;2024-03-06T05:58:33;11.10;71.80
19403;DHT22;9837;48.888;8.998;2024-03-06T06:01:00;11.10;72.50
19403;DHT22;9837;48.888;8.998;2024-03-06T06:03:26;11.10;72.40
19403;DHT22;9837;48.888;8.998;2024-03-06T06:05:53;11.20;72.50
19403;DHT22;9837;48.888;8.998;2024-03-06T06:08:19;11.10;71.60
19403;DHT22;9837;48.888;8.998;2024-03-06T06:10:44;11.10;71.90
19403;DHT22;9837;48.888;8.998;2024-03-06T06:13:10;11.10;72.60
19403;DHT22;9837;48.888;8.998;2024-03-06T06:15:36;11.10;72.70
19403;DHT22;9837;48.888;8.998;2024-03-06T06:18:01;11.10;72.80
19403;DHT22;9837;48.888;8.998;2024-03-06T06:20:27;10.90;72.30
19403;DHT22;9837;48.888;8.998;2024-03-06T06:22:53;10.90;73.10
19403;DHT22;9837;48.888;8.998;2024-03-06T06:25:18;10.60;73.90
19403;DHT22;9837;48.888;8.998;2024-03-06T06:27:44;10.60;74.60
19403;DHT22;9837;48.888;8.998;2024-03-06T06:30:10;10.60;74.50
19403;DHT22;9837;48.888;8.998;2024-03-06T06:32:37;10.50;75.50
19403;DHT22;9837;48.888;8.998;2024-03-06T06:35:03;10.60;74.90
19403;DHT22;9837;48.888;8.998;2024-03-06T06:37:29;10.50;75.50
19403;DHT22;9837;48.888;8.998;2024-03-06T06:39:54;10.60;75.20
19403;DHT22;9837;48.888;8.998;2024-03-06T06:42:20;10.80;74.80
19403;DHT22;9837;48.888;8.998;2024-03-06T06:44:46;10.80;74.70
19403;DHT22;9837;48.888;8.998;2024-03-06T06:47:11;10.70;74.90
19403;DHT22;9837;48.888;8.998;2024-03-06T06:49:37;10.70;75.10
19403;DHT22;9837;48.888;8.998;2024-03-06T06:52:02;10.80;74.90
19403;DHT22;9837;48.888;8.998;2024-03-06T06:54:28;10.70;74.90
19403;DHT22;9837;48.888;8.998;2024-03-06T06:56:53;10.90;74.10
19403;DHT22;9837;48.888;8.998;2024-03-06T06:59:19;10.80;73.60
19403;DHT22;9837;48.888;8.998;2024-03-06T07:01:45;10.80;74.10
19403;DHT22;9837;48.888;8.998;2024-03-06T07:04:11;10.90;74.20
19403;DHT22;9837;48.888;8.998;2024-03-06T07:06:36;10.90;74.10
19403;DHT22;9837;48.888;8.998;2024-03-06T07:11:30;10.80;73.90
19403;DHT22;9837;48.888;8.998;2024-03-06T07:13:55;10.60;74.80
19403;DHT22;9837;48.888;8.998;2024-03-06T07:16:21;10.60;75.50
19403;DHT22;9837;48.888;8.998;2024-03-06T07:18:47;10.60;76.10
19403;DHT22;9837;48.888;8.998;2024-03-06T07:21:13;10.90;74.80
19403;DHT22;9837;48.888;8.998;2024-03-06T07:23:38;10.90;75.40
19403;DHT22;9837;48.888;8.998;2024-03-06T07:26:04;10.70;75.70
19403;DHT22;9837;48.888;8.998;2024-03-06T07:28:30;10.60;76.10
19403;DHT22;9837;48.888;8.998;2024-03-06T07:30:55;10.40;76.30
19403;DHT22;9837;48.888;8.998;2024-03-06T07:33:21;10.30;77.10
19403;DHT22;9837;48.888;8.998;2024-03-06T07:38:12;10.10;77.30
19403;DHT22;9837;48.888;8.998;2024-03-06T07:40:38;9.80;79.90
19403;DHT22;9837;48.888;8.998;2024-03-06T07:43:03;10.10;79.40
19403;DHT22;9837;48.888;8.998;2024-03-06T07:45:29;10.10;79.00
19403;DHT22;9837;48.888;8.998;2024-03-06T07:47:56;10.30;78.80
19403;DHT22;9837;48.888;8.998;2024-03-06T07:52:48;10.80;77.60
19403;DHT22;9837;48.888;8.998;2024-03-06T07:55:13;10.40;77.70
19403;DHT22;9837;48.888;8.998;2024-03-06T07:57:39;10.30;78.80
19403;DHT22;9837;48.888;8.998;2024-03-06T08:00:06;10.40;78.20
19403;DHT22;9837;48.888;8.998;2024-03-06T08:02:40;10.40;78.20
19403;DHT22;9837;48.888;8.998;2024-03-06T08:05:10;10.80;77.10
19403;DHT22;9837;48.888;8.998;2024-03-06T08:07:41;10.70;77.50
19403;DHT22;9837;48.888;8.998;2024-03-06T08:10:11;10.50;77.80
19403;DHT22;9837;48.888;8.998;2024-03-06T08:12:43;10.50;78.60
19403;DHT22;9837;48.888;8.998;2024-03-06T08:15:10;10.80;76.80
19403;DHT22;9837;48.888;8.998;2024-03-06T08:17:40;10.70;77.40
19403;DHT22;9837;48.888;8.998;2024-03-06T08:20:09;10.70;78.00
19403;DHT22;9837;48.888;8.998;2024-03-06T08:22:40;10.90;76.70
19403;DHT22;9837;48.888;8.998;2024-03-06T08:25:06;10.90;77.20
19403;DHT22;9837;48.888;8.998;2024-03-06T08:27:33;10.60;77.60
19403;DHT22;9837;48.888;8.998;2024-03-06T08:29:59;10.40;78.80
19403;DHT22;9837;48.888;8.998;2024-03-06T08:32:24;10.50;79.40
19403;DHT22;9837;48.888;8.998;2024-03-06T08:34:50;10.50;79.50
19403;DHT22;9837;48.888;8.998;2024-03-06T08:37:15;10.60;78.90
19403;DHT22;9837;48.888;8.998;2024-03-06T08:39:40;10.60;79.50
19403;DHT22;9837;48.888;8.998;2024-03-06T08:42:06;10.50;78.50
19403;DHT22;9837;48.888;8.998;2024-03-06T08:46:58;10.50;78.80
19403;DHT22;9837;48.888;8.998;2024-03-06T08:49:23;10.60;78.20
19403;DHT22;9837;48.888;8.998;2024-03-06T08:51:48;10.70;78.30
19403;DHT22;9837;48.888;8.998;2024-03-06T08:54:14;10.60;78.90
19403;DHT22;9837;48.888;8.998;2024-03-06T08:56:39;10.60;79.20
19403;DHT22;9837;48.888;8.998;2024-03-06T08:59:05;10.70;79.20
19403;DHT22;9837;48.888;8.998;2024-03-06T09:01:30;11.00;78.30
19403;DHT22;9837;48.888;8.998;2024-03-06T09:03:56;10.80;78.40
19403;DHT22;9837;48.888;8.998;2024-03-06T09:06:22;10.80;79.10
19403;DHT22;9837;48.888;8.998;2024-03-06T09:08:48;10.70;78.90
19403;DHT22;9837;48.888;8.998;2024-03-06T09:11:14;10.40;79.60
19403;DHT22;9837;48.888;8.998;2024-03-06T09:13:39;10.30;80.30
19403;DHT22;9837;48.888;8.998;2024-03-06T09:16:05;10.10;81.20
19403;DHT22;9837;48.888;8.998;2024-03-06T09:18:30;9.90;82.10
19403;DHT22;9837;48.888;8.998;2024-03-06T09:20:56;10.20;82.10
19403;DHT22;9837;48.888;8.998;2024-03-06T09:23:22;10.30;80.40
19403;DHT22;9837;48.888;8.998;2024-03-06T09:25:47;10.30;81.00
19403;DHT22;9837;48.888;8.998;2024-03-06T09:28:13;10.40;80.60
19403;DHT22;9837;48.888;8.998;2024-03-06T09:30:39;10.40;80.00
19403;DHT22;9837;48.888;8.998;2024-03-06T09:33:04;10.40;80.00
19403;DHT22;9837;48.888;8.998;2024-03-06T09:35:30;10.40;80.50
19403;DHT22;9837;48.888;8.998;2024-03-06T09:37:58;10.20;81.00
19403;DHT22;9837;48.888;8.998;2024-03-06T09:40:23;10.10;82.20
19403;DHT22;9837;48.888;8.998;2024-03-06T09:42:50;10.70;80.20
19403;DHT22;9837;48.888;8.998;2024-03-06T09:45:16;10.60;79.40
19403;DHT22;9837;48.888;8.998;2024-03-06T09:47:43;10.60;80.20
19403;DHT22;9837;48.888;8.998;2024-03-06T09:50:09;10.40;80.70
19403;DHT22;9837;48.888;8.998;2024-03-06T09:52:36;10.20;82.10
19403;DHT22;9837;48.888;8.998;2024-03-06T09:55:02;10.40;80.90
19403;DHT22;9837;48.888;8.998;2024-03-06T09:57:29;10.40;82.40
19403;DHT22;9837;48.888;8.998;2024-03-06T09:59:55;10.20;82.00
19403;DHT22;9837;48.888;8.998;2024-03-06T10:02:37;10.20;82.50
19403;DHT22;9837;48.888;8.998;2024-03-06T10:05:03;10.10;82.90
19403;DHT22;9837;48.888;8.998;2024-03-06T10:07:31;10.20;82.90
19403;DHT22;9837;48.888;8.998;2024-03-06T10:09:56;10.20;82.20
19403;DHT22;9837;48.888;8.998;2024-03-06T10:12:22;10.60;81.50
19403;DHT22;9837;48.888;8.998;2024-03-06T10:14:51;10.80;81.00
19403;DHT22;9837;48.888;8.998;2024-03-06T10:17:21;11.10;80.10
19403;DHT22;9837;48.888;8.998;2024-03-06T10:19:52;11.10;80.60
19403;DHT22;9837;48.888;8.998;2024-03-06T10:22:18;10.90;79.50
19403;DHT22;9837;48.888;8.998;2024-03-06T10:24:44;10.70;81.20
19403;DHT22;9837;48.888;8.998;2024-03-06T10:27:15;10.80;80.20
19403;DHT22;9837;48.888;8.998;2024-03-06T10:29:41;10.80;80.40
19403;DHT22;9837;48.888;8.998;2024-03-06T10:32:07;10.80;81.10
19403;DHT22;9837;48.888;8.998;2024-03-06T10:37:02;10.60;80.70
19403;DHT22;9837;48.888;8.998;2024-03-06T10:39:33;10.70;79.90
19403;DHT22;9837;48.888;8.998;2024-03-06T10:42:06;10.30;81.00
19403;DHT22;9837;48.888;8.998;2024-03-06T10:44:34;11.60;82.70
19403;DHT22;9837;48.888;8.998;2024-03-06T10:47:01;10.30;82.40
19403;DHT22;9837;48.888;8.998;2024-03-06T10:49:28;10.50;81.90
19403;DHT22;9837;48.888;8.998;2024-03-06T10:52:01;10.80;81.30
19403;DHT22;9837;48.888;8.998;2024-03-06T10:54:29;11.00;78.50
19403;DHT22;9837;48.888;8.998;2024-03-06T10:56:56;10.90;78.90
19403;DHT22;9837;48.888;8.998;2024-03-06T10:59:25;11.00;78.90
19403;DHT22;9837;48.888;8.998;2024-03-06T11:02:00;10.70;79.90
19403;DHT22;9837;48.888;8.998;2024-03-06T11:04:30;10.70;80.00
19403;DHT22;9837;48.888;8.998;2024-03-06T11:07:00;10.70;80.60
19403;DHT22;9837;48.888;8.998;2024-03-06T11:09:33;10.60;81.50
19403;DHT22;9837;48.888;8.998;2024-03-06T11:12:03;10.40;80.90
19403;DHT22;9837;48.888;8.998;2024-03-06T11:14:31;10.40;81.70
19403;DHT22;9837;48.888;8.998;2024-03-06T11:17:17;10.40;81.90
19403;DHT22;9837;48.888;8.998;2024-03-06T11:28:22;11.00;80.00
19403;DHT22;9837;48.888;8.998;2024-03-06T11:31:02;11.00;80.70
19403;DHT22;9837;48.888;8.998;2024-03-06T11:36:26;11.30;78.70
19403;DHT22;9837;48.888;8.998;2024-03-06T11:39:05;11.40;78.80
19403;DHT22;9837;48.888;8.998;2024-03-06T11:41:46;11.10;78.40
19403;DHT22;9837;48.888;8.998;2024-03-06T11:44:14;10.70;81.00
19403;DHT22;9837;48.888;8.998;2024-03-06T11:47:07;10.70;81.80
19403;DHT22;9837;48.888;8.998;2024-03-06T11:49:34;10.80;82.10
19403;DHT22;9837;48.888;8.998;2024-03-06T11:52:09;10.80;82.70
19403;DHT22;9837;48.888;8.998;2024-03-06T11:54:36;10.90;81.30
19403;DHT22;9837;48.888;8.998;2024-03-06T11:57:03;11.10;80.00
19403;DHT22;9837;48.888;8.998;2024-03-06T11:59:33;11.00;81.00
19403;DHT22;9837;48.888;8.998;2024-03-06T12:02:01;11.00;81.70
19403;DHT22;9837;48.888;8.998;2024-03-06T12:04:40;11.00;81.70
19403;DHT22;9837;48.888;8.998;2024-03-06T12:07:06;10.70;82.80
19403;DHT22;9837;48.888;8.998;2024-03-06T12:09:34;10.90;82.60
19403;DHT22;9837;48.888;8.998;2024-03-06T12:11:59;11.30;81.50
19403;DHT22;9837;48.888;8.998;2024-03-06T12:14:25;11.80;80.00
19403;DHT22;9837;48.888;8.998;2024-03-06T12:16:59;11.80;80.70
19403;DHT22;9837;48.888;8.998;2024-03-06T12:19:28;11.60;79.60
19403;DHT22;9837;48.888;8.998;2024-03-06T12:21:54;11.50;79.70
19403;DHT22;9837;48.888;8.998;2024-03-06T12:24:19;11.60;80.40
19403;DHT22;9837;48.888;8.998;2024-03-06T12:26:46;11.10;80.40
19403;DHT22;9837;48.888;8.998;2024-03-06T12:29:18;11.30;80.30
19403;DHT22;9837;48.888;8.998;2024-03-06T12:31:46;11.40;81.00
19403;DHT22;9837;48.888;8.998;2024-03-06T12:34:15;11.40;79.30
19403;DHT22;9837;48.888;8.998;2024-03-06T12:36:42;11.50;79.00
19403;DHT22;9837;48.888;8.998;2024-03-06T12:39:08;11.30;79.10
19403;DHT22;9837;48.888;8.998;2024-03-06T12:41:39;11.20;79.70
19403;DHT22;9837;48.888;8.998;2024-03-06T12:44:05;11.10;80.60
19403;DHT22;9837;48.888;8.998;2024-03-06T12:46:32;11.00;80.30
19403;DHT22;9837;48.888;8.998;2024-03-06T12:48:57;11.10;80.40
19403;DHT22;9837;48.888;8.998;2024-03-06T12:51:23;10.90;80.70
19403;DHT22;9837;48.888;8.998;2024-03-06T12:53:48;11.00;81.50
19403;DHT22;9837;48.888;8.998;2024-03-06T12:56:14;11.10;80.30
19403;DHT22;9837;48.888;8.998;2024-03-06T12:58:40;11.10;81.20
19403;DHT22;9837;48.888;8.998;2024-03-06T13:01:05;10.80;83.20
19403;DHT22;9837;48.888;8.998;2024-03-06T13:03:31;10.90;81.80
19403;DHT22;9837;48.888;8.998;2024-03-06T13:05:57;11.00;82.40
19403;DHT22;9837;48.888;8.998;2024-03-06T13:08:23;11.10;81.80
19403;DHT22;9837;48.888;8.998;2024-03-06T13:10:48;11.10;82.50
19403;DHT22;9837;48.888;8.998;2024-03-06T13:13:14;11.40;81.30
19403;DHT22;9837;48.888;8.998;2024-03-06T13:15:39;11.10;81.30
19403;DHT22;9837;48.888;8.998;2024-03-06T13:18:05;11.10;82.00
19403;DHT22;9837;48.888;8.998;2024-03-06T13:20:32;10.80;83.10
19403;DHT22;9837;48.888;8.998;2024-03-06T13:22:57;10.80;82.60
19403;DHT22;9837;48.888;8.998;2024-03-06T13:25:23;10.80;83.50
19403;DHT22;9837;48.888;8.998;2024-03-06T13:27:50;11.30;81.60
19403;DHT22;9837;48.888;8.998;2024-03-06T13:30:17;11.30;80.90
19403;DHT22;9837;48.888;8.998;2024-03-06T13:32:43;11.20;81.20
19403;DHT22;9837;48.888;8.998;2024-03-06T13:35:10;11.20;82.10
19403;DHT22;9837;48.888;8.998;2024-03-06T13:37:38;11.00;82.20
19403;DHT22;9837;48.888;8.998;2024-03-06T13:40:05;11.00;81.80
19403;DHT22;9837;48.888;8.998;2024-03-06T13:42:32;10.90;82.40
19403;DHT22;9837;48.888;8.998;2024-03-06T13:44:58;11.00;82.10
19403;DHT22;9837;48.888;8.998;2024-03-06T13:47:23;11.00;82.90
19403;DHT22;9837;48.888;8.998;2024-03-06T13:49:49;10.70;83.70
19403;DHT22;9837;48.888;8.998;2024-03-06T13:52:14;10.70;84.30
19403;DHT22;9837;48.888;8.998;2024-03-06T13:54:41;10.80;84.70
19403;DHT22;9837;48.888;8.998;2024-03-06T13:57:10;10.70;83.70
19403;DHT22;9837;48.888;8.998;2024-03-06T13:59:36;10.70;84.30
19403;DHT22;9837;48.888;8.998;2024-03-06T14:02:03;10.70;85.00
19403;DHT22;9837;48.888;8.998;2024-03-06T14:04:29;10.90;83.50
19403;DHT22;9837;48.888;8.998;2024-03-06T14:06:55;10.90;84.10
19403;DHT22;9837;48.888;8.998;2024-03-06T14:09:22;11.10;83.60
19403;DHT22;9837;48.888;8.998;2024-03-06T14:11:49;11.00;83.30
19403;DHT22;9837;48.888;8.998;2024-03-06T14:16:41;11.20;82.80
19403;DHT22;9837;48.888;8.998;2024-03-06T14:19:08;11.20;83.20
19403;DHT22;9837;48.888;8.998;2024-03-06T14:21:33;11.30;81.70
19403;DHT22;9837;48.888;8.998;2024-03-06T14:24:00;11.40;81.70
19403;DHT22;9837;48.888;8.998;2024-03-06T14:26:29;11.50;80.70
19403;DHT22;9837;48.888;8.998;2024-03-06T14:28:55;11.50;81.10
19403;DHT22;9837;48.888;8.998;2024-03-06T14:31:20;11.50;80.90
19403;DHT22;9837;48.888;8.998;2024-03-06T14:33:46;11.50;81.60
19403;DHT22;9837;48.888;8.998;2024-03-06T14:36:12;11.40;82.20
19403;DHT22;9837;48.888;8.998;2024-03-06T14:38:38;11.70;80.40
19403;DHT22;9837;48.888;8.998;2024-03-06T14:41:03;11.60;80.80
19403;DHT22;9837;48.888;8.998;2024-03-06T14:46:00;11.70;80.30
19403;DHT22;9837;48.888;8.998;2024-03-06T14:48:25;11.80;80.00
19403;DHT22;9837;48.888;8.998;2024-03-06T14:50:52;11.80;79.80
19403;DHT22;9837;48.888;8.998;2024-03-06T14:53:18;11.80;80.50
19403;DHT22;9837;48.888;8.998;2024-03-06T14:55:44;11.90;79.20
19403;DHT22;9837;48.888;8.998;2024-03-06T14:58:09;11.90;80.00
19403;DHT22;9837;48.888;8.998;2024-03-06T15:00:35;12.00;80.70
19403;DHT22;9837;48.888;8.998;2024-03-06T15:03:00;12.10;78.70
19403;DHT22;9837;48.888;8.998;2024-03-06T15:05:27;11.90;79.10
19403;DHT22;9837;48.888;8.998;2024-03-06T15:07:53;11.90;79.80
19403;DHT22;9837;48.888;8.998;2024-03-06T15:10:18;11.70;80.20
19403;DHT22;9837;48.888;8.998;2024-03-06T15:12:44;11.70;80.90
19403;DHT22;9837;48.888;8.998;2024-03-06T15:17:36;11.50;81.00
19403;DHT22;9837;48.888;8.998;2024-03-06T15:20:05;11.70;80.30
19403;DHT22;9837;48.888;8.998;2024-03-06T15:22:35;11.70;81.00
19403;DHT22;9837;48.888;8.998;2024-03-06T15:25:10;11.90;79.70
19403;DHT22;9837;48.888;8.998;2024-03-06T15:27:36;11.90;80.40
19403;DHT22;9837;48.888;8.998;2024-03-06T15:30:04;11.90;79.90
19403;DHT22;9837;48.888;8.998;2024-03-06T15:32:30;11.80;80.00
19403;DHT22;9837;48.888;8.998;2024-03-06T15:34:56;11.60;80.80
19403;DHT22;9837;48.888;8.998;2024-03-06T15:37:23;11.60;81.50
19403;DHT22;9837;48.888;8.998;2024-03-06T15:39:52;11.70;81.80
19403;DHT22;9837;48.888;8.998;2024-03-06T15:42:18;11.70;81.40
19403;DHT22;9837;48.888;8.998;2024-03-06T15:44:43;11.70;80.70
19403;DHT22;9837;48.888;8.998;2024-03-06T15:47:09;11.90;80.40
19403;DHT22;9837;48.888;8.998;2024-03-06T15:49:34;11.90;80.00
19403;DHT22;9837;48.888;8.998;2024-03-06T15:52:00;11.90;79.90
19403;DHT22;9837;48.888;8.998;2024-03-06T15:54:25;11.90;79.90
19403;DHT22;9837;48.888;8.998;2024-03-06T15:56:51;11.80;79.90
19403;DHT22;9837;48.888;8.998;2024-03-06T15:59:17;11.70;80.50
19403;DHT22;9837;48.888;8.998;2024-03-06T16:01:42;11.70;81.20
19403;DHT22;9837;48.888;8.998;2024-03-06T16:04:09;11.70;80.60
19403;DHT22;9837;48.888;8.998;2024-03-06T16:06:35;11.70;80.60
19403;DHT22;9837;48.888;8.998;2024-03-06T16:09:00;11.70;81.20
19403;DHT22;9837;48.888;8.998;2024-03-06T16:11:26;11.40;82.10
19403;DHT22;9837;48.888;8.998;2024-03-06T16:13:54;11.60;81.80
19403;DHT22;9837;48.888;8.998;2024-03-06T16:16:24;11.60;82.60
19403;DHT22;9837;48.888;8.998;2024-03-06T16:18:50;11.90;80.40
19403;DHT22;9837;48.888;8.998;2024-03-06T16:21:18;11.90;80.00
19403;DHT22;9837;48.888;8.998;2024-03-06T16:23:44;11.70;80.30
19403;DHT22;9837;48.888;8.998;2024-03-06T16:26:10;11.80;80.60
19403;DHT22;9837;48.888;8.998;2024-03-06T16:28:35;11.90;80.30
19403;DHT22;9837;48.888;8.998;2024-03-06T16:31:01;12.00;79.80
19403;DHT22;9837;48.888;8.998;2024-03-06T16:33:26;12.00;79.40
19403;DHT22;9837;48.888;8.998;2024-03-06T16:35:52;12.00;79.50
19403;DHT22;9837;48.888;8.998;2024-03-06T16:38:17;11.90;79.50
19403;DHT22;9837;48.888;8.998;2024-03-06T16:40:44;11.90;79.60
19403;DHT22;9837;48.888;8.998;2024-03-06T16:43:12;11.90;80.30
19403;DHT22;9837;48.888;8.998;2024-03-06T16:45:37;11.40;81.40
19403;DHT22;9837;48.888;8.998;2024-03-06T16:48:04;11.50;81.10
19403;DHT22;9837;48.888;8.998;2024-03-06T16:50:29;11.50;81.50